sensor_id;sensor_type;location;lat;lon;timestamp;P1;durP1;ratioP1;P2;durP2;ratioP2
52136;SDS011;69622;49.570;10.986;2023-05-07T11:33:43;6.97;;;4.22;;
52136;SDS011;69622;49.570;10.986;2023-05-07T11:36:45;4.45;;;3.97;;
52136;SDS011;69622;49.570;10.986;2023-05-07T11:39:48;4.38;;;3.80;;
52136;SDS011;69622;49.570;10.986;2023-05-07T11:42:50;4.47;;;3.40;;
52136;SDS011;69622;49.570;10.986;2023-05-07T11:45:52;4.43;;;3.60;;
52136;SDS011;69622;49.570;10.986;2023-05-07T11:48:54;3.65;;;3.25;;
52136;SDS011;69622;49.570;10.986;2023-05-07T11:51:56;3.85;;;3.22;;
52136;SDS011;69622;49.570;10.986;2023-05-07T11:54:58;3.88;;;2.90;;
52136;SDS011;69622;49.570;10.986;2023-05-07T11:58:01;5.40;;;3.78;;
52136;SDS011;69622;49.570;10.986;2023-05-07T12:01:02;5.35;;;3.60;;
52136;SDS011;69622;49.570;10.986;2023-05-07T12:04:04;5.40;;;3.15;;
52136;SDS011;69622;49.570;10.986;2023-05-07T12:07:13;4.05;;;3.22;;
52136;SDS011;69622;49.570;10.986;2023-05-07T12:10:15;3.67;;;3.35;;
52136;SDS011;69622;49.570;10.986;2023-05-07T12:13:18;5.82;;;4.13;;
52136;SDS011;69622;49.570;10.986;2023-05-07T12:16:21;4.03;;;3.63;;
52136;SDS011;69622;49.570;10.986;2023-05-07T12:19:23;4.78;;;3.33;;
52136;SDS011;69622;49.570;10.986;2023-05-07T12:22:24;4.85;;;3.60;;
52136;SDS011;69622;49.570;10.986;2023-05-07T12:25:26;4.38;;;3.92;;
52136;SDS011;69622;49.570;10.986;2023-05-07T12:28:27;3.88;;;3.47;;
52136;SDS011;69622;49.570;10.986;2023-05-07T12:31:29;6.22;;;3.10;;
52136;SDS011;69622;49.570;10.986;2023-05-07T12:34:31;4.18;;;3.78;;
52136;SDS011;69622;49.570;10.986;2023-05-07T12:37:33;4.38;;;3.38;;
52136;SDS011;69622;49.570;10.986;2023-05-07T12:43:39;4.95;;;3.33;;
52136;SDS011;69622;49.570;10.986;2023-05-07T12:46:40;3.30;;;2.90;;
52136;SDS011;69622;49.570;10.986;2023-05-07T12:49:42;4.47;;;3.13;;
52136;SDS011;69622;49.570;10.986;2023-05-07T12:52:45;5.47;;;3.60;;
52136;SDS011;69622;49.570;10.986;2023-05-07T12:55:49;3.20;;;2.90;;
52136;SDS011;69622;49.570;10.986;2023-05-07T12:58:52;6.70;;;3.63;;
52136;SDS011;69622;49.570;10.986;2023-05-07T13:01:58;4.32;;;3.38;;
52136;SDS011;69622;49.570;10.986;2023-05-07T13:05:00;3.03;;;2.55;;
52136;SDS011;69622;49.570;10.986;2023-05-07T13:08:01;3.85;;;3.10;;
52136;SDS011;69622;49.570;10.986;2023-05-07T13:11:03;6.10;;;4.25;;
52136;SDS011;69622;49.570;10.986;2023-05-07T13:14:05;4.22;;;2.97;;
52136;SDS011;69622;49.570;10.986;2023-05-07T13:17:07;3.75;;;2.97;;
52136;SDS011;69622;49.570;10.986;2023-05-07T13:20:11;5.43;;;3.53;;
52136;SDS011;69622;49.570;10.986;2023-05-07T13:23:13;4.38;;;3.30;;
52136;SDS011;69622;49.570;10.986;2023-05-07T13:26:15;3.90;;;2.97;;
52136;SDS011;69622;49.570;10.986;2023-05-07T13:29:27;5.47;;;3.72;;
52136;SDS011;69622;49.570;10.986;2023-05-07T13:32:31;8.87;;;4.60;;
52136;SDS011;69622;49.570;10.986;2023-05-07T13:35:32;4.13;;;3.17;;
52136;SDS011;69622;49.570;10.986;2023-05-07T13:38:34;3.45;;;3.15;;
52136;SDS011;69622;49.570;10.986;2023-05-07T13:41:36;3.72;;;2.83;;
52136;SDS011;69622;49.570;10.986;2023-05-07T13:44:37;3.38;;;3.08;;
52136;SDS011;69622;49.570;10.986;2023-05-07T13:47:38;3.40;;;3.00;;
52136;SDS011;69622;49.570;10.986;2023-05-07T13:50:40;4.45;;;3.40;;
52136;SDS011;69622;49.570;10.986;2023-05-07T13:53:42;4.97;;;3.28;;
52136;SDS011;69622;49.570;10.986;2023-05-07T13:56:43;3.55;;;3.25;;
52136;SDS011;69622;49.570;10.986;2023-05-07T13:59:44;4.75;;;3.67;;
52136;SDS011;69622;49.570;10.986;2023-05-07T14:02:46;10.07;;;3.47;;
52136;SDS011;69622;49.570;10.986;2023-05-07T14:05:47;6.80;;;3.33;;
52136;SDS011;69622;49.570;10.986;2023-05-07T14:08:50;4.88;;;3.03;;
52136;SDS011;69622;49.570;10.986;2023-05-07T14:11:52;6.00;;;3.53;;
52136;SDS011;69622;49.570;10.986;2023-05-07T14:14:53;6.00;;;3.42;;
52136;SDS011;69622;49.570;10.986;2023-05-07T14:17:54;3.58;;;3.28;;
52136;SDS011;69622;49.570;10.986;2023-05-07T14:20:56;4.18;;;2.85;;
52136;SDS011;69622;49.570;10.986;2023-05-07T14:23:57;4.63;;;3.50;;
52136;SDS011;69622;49.570;10.986;2023-05-07T14:26:59;5.53;;;3.80;;
52136;SDS011;69622;49.570;10.986;2023-05-07T14:30:00;5.88;;;3.15;;
52136;SDS011;69622;49.570;10.986;2023-05-07T14:33:02;3.53;;;3.22;;
52136;SDS011;69622;49.570;10.986;2023-05-07T14:36:03;3.67;;;2.70;;
52136;SDS011;69622;49.570;10.986;2023-05-07T14:39:05;3.78;;;2.67;;
52136;SDS011;69622;49.570;10.986;2023-05-07T14:42:07;3.40;;;2.67;;
52136;SDS011;69622;49.570;10.986;2023-05-07T14:45:09;3.47;;;2.75;;
52136;SDS011;69622;49.570;10.986;2023-05-07T14:48:11;4.97;;;3.50;;
52136;SDS011;69622;49.570;10.986;2023-05-07T14:51:16;2.70;;;2.47;;
52136;SDS011;69622;49.570;10.986;2023-05-07T14:54:17;3.92;;;2.65;;
52136;SDS011;69622;49.570;10.986;2023-05-07T14:57:19;3.38;;;2.63;;
52136;SDS011;69622;49.570;10.986;2023-05-07T15:00:20;6.38;;;3.05;;
52136;SDS011;69622;49.570;10.986;2023-05-07T15:03:22;4.13;;;2.85;;
52136;SDS011;69622;49.570;10.986;2023-05-07T15:06:24;3.75;;;2.92;;
52136;SDS011;69622;49.570;10.986;2023-05-07T15:09:25;3.78;;;3.17;;
52136;SDS011;69622;49.570;10.986;2023-05-07T15:12:27;4.00;;;3.22;;
52136;SDS011;69622;49.570;10.986;2023-05-07T15:15:28;5.82;;;3.63;;
52136;SDS011;69622;49.570;10.986;2023-05-07T15:18:30;6.25;;;3.60;;
52136;SDS011;69622;49.570;10.986;2023-05-07T15:21:31;4.15;;;3.42;;
52136;SDS011;69622;49.570;10.986;2023-05-07T15:24:35;4.75;;;3.45;;
52136;SDS011;69622;49.570;10.986;2023-05-07T15:27:36;3.47;;;3.17;;
52136;SDS011;69622;49.570;10.986;2023-05-07T15:30:38;3.35;;;3.05;;
52136;SDS011;69622;49.570;10.986;2023-05-07T15:33:40;4.22;;;2.70;;
52136;SDS011;69622;49.570;10.986;2023-05-07T15:36:41;2.78;;;2.45;;
52136;SDS011;69622;49.570;10.986;2023-05-07T15:39:43;3.35;;;3.03;;
52136;SDS011;69622;49.570;10.986;2023-05-07T15:42:45;5.25;;;3.00;;
52136;SDS011;69622;49.570;10.986;2023-05-07T15:45:47;3.67;;;2.75;;
52136;SDS011;69622;49.570;10.986;2023-05-07T15:48:48;3.28;;;2.97;;
52136;SDS011;69622;49.570;10.986;2023-05-07T15:51:50;3.15;;;2.83;;
52136;SDS011;69622;49.570;10.986;2023-05-07T15:54:52;4.10;;;3.50;;
52136;SDS011;69622;49.570;10.986;2023-05-07T15:57:53;4.45;;;3.05;;
52136;SDS011;69622;49.570;10.986;2023-05-07T16:00:55;5.40;;;3.45;;
52136;SDS011;69622;49.570;10.986;2023-05-07T16:03:56;8.10;;;2.75;;
52136;SDS011;69622;49.570;10.986;2023-05-07T16:06:58;4.80;;;2.65;;
52136;SDS011;69622;49.570;10.986;2023-05-07T16:10:00;3.20;;;2.90;;
52136;SDS011;69622;49.570;10.986;2023-05-07T16:13:02;5.57;;;2.55;;
52136;SDS011;69622;49.570;10.986;2023-05-07T16:16:04;5.40;;;2.88;;
52136;SDS011;69622;49.570;10.986;2023-05-07T16:19:06;2.67;;;2.42;;
52136;SDS011;69622;49.570;10.986;2023-05-07T16:22:07;3.83;;;2.10;;
52136;SDS011;69622;49.570;10.986;2023-05-07T16:25:09;3.17;;;2.08;;
52136;SDS011;69622;49.570;10.986;2023-05-07T16:28:13;4.25;;;3.13;;
52136;SDS011;69622;49.570;10.986;2023-05-07T16:31:15;2.77;;;2.33;;
52136;SDS011;69622;49.570;10.986;2023-05-07T16:34:17;3.78;;;3.15;;
52136;SDS011;69622;49.570;10.986;2023-05-07T16:39:13;6.03;;;3.10;;
52136;SDS011;69622;49.570;10.986;2023-05-07T16:42:14;4.05;;;3.25;;
52136;SDS011;69622;49.570;10.986;2023-05-07T16:45:16;5.05;;;3.47;;
52136;SDS011;69622;49.570;10.986;2023-05-07T16:48:19;3.00;;;2.58;;
52136;SDS011;69622;49.570;10.986;2023-05-07T16:51:21;4.30;;;3.22;;
52136;SDS011;69622;49.570;10.986;2023-05-07T16:54:24;3.80;;;3.15;;
52136;SDS011;69622;49.570;10.986;2023-05-07T16:57:26;4.93;;;3.13;;
52136;SDS011;69622;49.570;10.986;2023-05-07T17:00:29;4.32;;;3.30;;
52136;SDS011;69622;49.570;10.986;2023-05-07T17:03:49;7.13;;;4.30;;
52136;SDS011;69622;49.570;10.986;2023-05-07T17:06:50;6.28;;;4.20;;
52136;SDS011;69622;49.570;10.986;2023-05-07T17:09:52;5.70;;;4.07;;
52136;SDS011;69622;49.570;10.986;2023-05-07T17:12:53;6.07;;;4.78;;
52136;SDS011;69622;49.570;10.986;2023-05-07T17:15:55;5.13;;;4.20;;
52136;SDS011;69622;49.570;10.986;2023-05-07T17:18:56;7.72;;;4.20;;
52136;SDS011;69622;49.570;10.986;2023-05-07T17:21:57;6.50;;;4.60;;
52136;SDS011;69622;49.570;10.986;2023-05-07T17:24:59;4.57;;;4.13;;
52136;SDS011;69622;49.570;10.986;2023-05-07T17:28:03;7.57;;;4.43;;
52136;SDS011;69622;49.570;10.986;2023-05-07T17:31:05;5.75;;;4.40;;
52136;SDS011;69622;49.570;10.986;2023-05-07T17:34:06;5.70;;;4.80;;
52136;SDS011;69622;49.570;10.986;2023-05-07T17:37:07;8.60;;;4.93;;
52136;SDS011;69622;49.570;10.986;2023-05-07T17:40:09;4.30;;;3.90;;
52136;SDS011;69622;49.570;10.986;2023-05-07T17:43:11;7.10;;;5.03;;
52136;SDS011;69622;49.570;10.986;2023-05-07T17:46:12;5.68;;;4.10;;
52136;SDS011;69622;49.570;10.986;2023-05-07T17:49:14;5.22;;;4.32;;
52136;SDS011;69622;49.570;10.986;2023-05-07T17:52:16;5.82;;;3.95;;
52136;SDS011;69622;49.570;10.986;2023-05-07T17:55:17;5.38;;;4.35;;
52136;SDS011;69622;49.570;10.986;2023-05-07T17:58:19;5.93;;;4.78;;
52136;SDS011;69622;49.570;10.986;2023-05-07T18:01:22;6.32;;;4.13;;
52136;SDS011;69622;49.570;10.986;2023-05-07T18:04:25;4.22;;;3.83;;
52136;SDS011;69622;49.570;10.986;2023-05-07T18:07:28;5.10;;;4.07;;
52136;SDS011;69622;49.570;10.986;2023-05-07T18:10:29;5.30;;;4.38;;
52136;SDS011;69622;49.570;10.986;2023-05-07T18:13:31;6.55;;;4.60;;
52136;SDS011;69622;49.570;10.986;2023-05-07T18:16:32;6.07;;;4.93;;
52136;SDS011;69622;49.570;10.986;2023-05-07T18:19:34;5.10;;;4.05;;
52136;SDS011;69622;49.570;10.986;2023-05-07T18:22:36;7.65;;;4.03;;
52136;SDS011;69622;49.570;10.986;2023-05-07T18:25:38;6.85;;;4.28;;
52136;SDS011;69622;49.570;10.986;2023-05-07T18:28:40;4.40;;;3.78;;
52136;SDS011;69622;49.570;10.986;2023-05-07T18:31:41;4.25;;;3.55;;
52136;SDS011;69622;49.570;10.986;2023-05-07T18:34:43;4.93;;;4.43;;
52136;SDS011;69622;49.570;10.986;2023-05-07T18:37:44;4.07;;;3.40;;
52136;SDS011;69622;49.570;10.986;2023-05-07T18:40:45;4.55;;;3.72;;
52136;SDS011;69622;49.570;10.986;2023-05-07T18:43:47;4.18;;;3.53;;
52136;SDS011;69622;49.570;10.986;2023-05-07T18:46:49;3.92;;;3.53;;
52136;SDS011;69622;49.570;10.986;2023-05-07T18:49:50;4.65;;;3.45;;
52136;SDS011;69622;49.570;10.986;2023-05-07T18:52:52;3.63;;;3.25;;
52136;SDS011;69622;49.570;10.986;2023-05-07T18:55:53;4.03;;;3.30;;
52136;SDS011;69622;49.570;10.986;2023-05-07T18:58:55;4.35;;;3.35;;
52136;SDS011;69622;49.570;10.986;2023-05-07T19:01:56;5.28;;;3.30;;
52136;SDS011;69622;49.570;10.986;2023-05-07T19:04:57;4.15;;;3.03;;
52136;SDS011;69622;49.570;10.986;2023-05-07T19:07:59;4.63;;;3.35;;
52136;SDS011;69622;49.570;10.986;2023-05-07T19:11:01;4.60;;;3.03;;
52136;SDS011;69622;49.570;10.986;2023-05-07T19:14:03;4.03;;;2.97;;
52136;SDS011;69622;49.570;10.986;2023-05-07T19:17:05;3.35;;;3.00;;
52136;SDS011;69622;49.570;10.986;2023-05-07T19:20:06;7.82;;;3.15;;
52136;SDS011;69622;49.570;10.986;2023-05-07T19:23:10;3.23;;;2.93;;
52136;SDS011;69622;49.570;10.986;2023-05-07T19:26:12;4.40;;;3.50;;
52136;SDS011;69622;49.570;10.986;2023-05-07T19:29:13;4.15;;;3.65;;
52136;SDS011;69622;49.570;10.986;2023-05-07T19:32:18;3.42;;;3.03;;
52136;SDS011;69622;49.570;10.986;2023-05-07T19:35:21;3.50;;;2.67;;
52136;SDS011;69622;49.570;10.986;2023-05-07T19:38:23;6.50;;;3.10;;
52136;SDS011;69622;49.570;10.986;2023-05-07T19:41:26;4.00;;;2.90;;
52136;SDS011;69622;49.570;10.986;2023-05-07T19:44:29;7.00;;;3.35;;
52136;SDS011;69622;49.570;10.986;2023-05-07T19:47:30;3.78;;;3.35;;
52136;SDS011;69622;49.570;10.986;2023-05-07T19:50:32;4.38;;;3.17;;
52136;SDS011;69622;49.570;10.986;2023-05-07T19:53:33;6.07;;;3.10;;
52136;SDS011;69622;49.570;10.986;2023-05-07T19:56:34;5.63;;;3.13;;
52136;SDS011;69622;49.570;10.986;2023-05-07T19:59:36;5.45;;;2.97;;
52136;SDS011;69622;49.570;10.986;2023-05-07T20:02:37;4.72;;;3.58;;
52136;SDS011;69622;49.570;10.986;2023-05-07T20:05:39;4.40;;;3.25;;
52136;SDS011;69622;49.570;10.986;2023-05-07T20:08:40;4.50;;;3.08;;
52136;SDS011;69622;49.570;10.986;2023-05-07T20:11:43;4.13;;;2.95;;
52136;SDS011;69622;49.570;10.986;2023-05-07T20:14:44;3.70;;;2.95;;
52136;SDS011;69622;49.570;10.986;2023-05-07T20:17:46;4.38;;;2.97;;
52136;SDS011;69622;49.570;10.986;2023-05-07T20:20:47;3.22;;;2.92;;
52136;SDS011;69622;49.570;10.986;2023-05-07T20:23:49;4.55;;;2.97;;
52136;SDS011;69622;49.570;10.986;2023-05-07T20:26:51;3.75;;;2.90;;
52136;SDS011;69622;49.570;10.986;2023-05-07T20:29:53;4.30;;;3.25;;
52136;SDS011;69622;49.570;10.986;2023-05-07T20:32:54;6.03;;;3.22;;
52136;SDS011;69622;49.570;10.986;2023-05-07T20:35:56;3.83;;;3.30;;
52136;SDS011;69622;49.570;10.986;2023-05-07T20:38:58;4.00;;;3.60;;
52136;SDS011;69622;49.570;10.986;2023-05-07T20:41:59;4.55;;;3.53;;
52136;SDS011;69622;49.570;10.986;2023-05-07T20:45:01;5.78;;;3.40;;
52136;SDS011;69622;49.570;10.986;2023-05-07T20:48:04;6.13;;;3.90;;
52136;SDS011;69622;49.570;10.986;2023-05-07T20:51:06;4.40;;;3.97;;
52136;SDS011;69622;49.570;10.986;2023-05-07T20:54:10;4.75;;;4.20;;
52136;SDS011;69622;49.570;10.986;2023-05-07T20:57:13;5.32;;;3.65;;
52136;SDS011;69622;49.570;10.986;2023-05-07T21:00:14;4.97;;;4.47;;
52136;SDS011;69622;49.570;10.986;2023-05-07T21:03:17;5.10;;;4.40;;
52136;SDS011;69622;49.570;10.986;2023-05-07T21:06:19;4.35;;;3.55;;
52136;SDS011;69622;49.570;10.986;2023-05-07T21:09:20;7.50;;;4.70;;
52136;SDS011;69622;49.570;10.986;2023-05-07T21:12:22;4.20;;;3.80;;
52136;SDS011;69622;49.570;10.986;2023-05-07T21:15:23;4.95;;;4.07;;
52136;SDS011;69622;49.570;10.986;2023-05-07T21:18:25;6.68;;;4.18;;
52136;SDS011;69622;49.570;10.986;2023-05-07T21:21:26;4.72;;;3.95;;
52136;SDS011;69622;49.570;10.986;2023-05-07T21:24:28;4.88;;;4.30;;
52136;SDS011;69622;49.570;10.986;2023-05-07T21:27:29;4.65;;;3.90;;
52136;SDS011;69622;49.570;10.986;2023-05-07T21:30:31;4.45;;;3.63;;
52136;SDS011;69622;49.570;10.986;2023-05-07T21:33:32;5.70;;;4.25;;
52136;SDS011;69622;49.570;10.986;2023-05-07T21:36:34;5.75;;;4.43;;
52136;SDS011;69622;49.570;10.986;2023-05-07T21:39:35;4.68;;;4.25;;
52136;SDS011;69622;49.570;10.986;2023-05-07T21:42:37;8.15;;;5.10;;
52136;SDS011;69622;49.570;10.986;2023-05-07T21:45:38;6.35;;;4.32;;
52136;SDS011;69622;49.570;10.986;2023-05-07T21:48:41;7.00;;;4.32;;
52136;SDS011;69622;49.570;10.986;2023-05-07T21:51:42;5.32;;;4.50;;
52136;SDS011;69622;49.570;10.986;2023-05-07T21:54:43;4.35;;;3.95;;
52136;SDS011;69622;49.570;10.986;2023-05-07T21:57:45;5.97;;;4.22;;
52136;SDS011;69622;49.570;10.986;2023-05-07T22:01:05;6.20;;;4.43;;
52136;SDS011;69622;49.570;10.986;2023-05-07T22:04:06;5.13;;;4.45;;
52136;SDS011;69622;49.570;10.986;2023-05-07T22:07:08;5.55;;;4.40;;
52136;SDS011;69622;49.570;10.986;2023-05-07T22:10:09;6.40;;;4.55;;
52136;SDS011;69622;49.570;10.986;2023-05-07T22:13:11;7.72;;;4.18;;
52136;SDS011;69622;49.570;10.986;2023-05-07T22:16:13;4.95;;;4.40;;
52136;SDS011;69622;49.570;10.986;2023-05-07T22:19:14;4.40;;;3.88;;
52136;SDS011;69622;49.570;10.986;2023-05-07T22:22:15;7.45;;;3.90;;
52136;SDS011;69622;49.570;10.986;2023-05-07T22:25:19;4.45;;;3.95;;
52136;SDS011;69622;49.570;10.986;2023-05-07T22:28:21;5.97;;;4.07;;
52136;SDS011;69622;49.570;10.986;2023-05-07T22:31:23;6.43;;;4.45;;
52136;SDS011;69622;49.570;10.986;2023-05-07T22:34:24;4.60;;;4.07;;
52136;SDS011;69622;49.570;10.986;2023-05-07T22:37:26;5.97;;;3.75;;
52136;SDS011;69622;49.570;10.986;2023-05-07T22:40:27;4.68;;;3.92;;
52136;SDS011;69622;49.570;10.986;2023-05-07T22:43:29;4.40;;;4.00;;
52136;SDS011;69622;49.570;10.986;2023-05-07T22:46:31;5.40;;;4.45;;
52136;SDS011;69622;49.570;10.986;2023-05-07T22:49:33;6.15;;;4.25;;
52136;SDS011;69622;49.570;10.986;2023-05-07T22:52:35;4.85;;;4.35;;
52136;SDS011;69622;49.570;10.986;2023-05-07T22:55:37;5.88;;;4.20;;
52136;SDS011;69622;49.570;10.986;2023-05-07T22:58:38;4.35;;;3.88;;
52136;SDS011;69622;49.570;10.986;2023-05-07T23:01:40;4.80;;;3.95;;
52136;SDS011;69622;49.570;10.986;2023-05-07T23:04:41;5.65;;;4.72;;
52136;SDS011;69622;49.570;10.986;2023-05-07T23:07:43;4.85;;;3.90;;
52136;SDS011;69622;49.570;10.986;2023-05-07T23:10:44;7.45;;;4.35;;
52136;SDS011;69622;49.570;10.986;2023-05-07T23:13:46;5.72;;;3.90;;
52136;SDS011;69622;49.570;10.986;2023-05-07T23:16:47;4.78;;;4.28;;
52136;SDS011;69622;49.570;10.986;2023-05-07T23:19:48;5.57;;;4.30;;
52136;SDS011;69622;49.570;10.986;2023-05-07T23:22:50;5.10;;;4.05;;
52136;SDS011;69622;49.570;10.986;2023-05-07T23:25:51;4.68;;;4.07;;
52136;SDS011;69622;49.570;10.986;2023-05-07T23:28:53;5.25;;;4.57;;
52136;SDS011;69622;49.570;10.986;2023-05-07T23:31:54;6.40;;;4.32;;
52136;SDS011;69622;49.570;10.986;2023-05-07T23:34:56;4.75;;;4.25;;
52136;SDS011;69622;49.570;10.986;2023-05-07T23:37:57;5.78;;;5.18;;
52136;SDS011;69622;49.570;10.986;2023-05-07T23:40:59;5.57;;;4.50;;
52136;SDS011;69622;49.570;10.986;2023-05-07T23:44:00;5.05;;;4.45;;
52136;SDS011;69622;49.570;10.986;2023-05-07T23:47:02;6.20;;;4.55;;
52136;SDS011;69622;49.570;10.986;2023-05-07T23:50:03;5.78;;;4.60;;
52136;SDS011;69622;49.570;10.986;2023-05-07T23:53:05;6.28;;;4.72;;
52136;SDS011;69622;49.570;10.986;2023-05-07T23:56:07;5.70;;;3.90;;
52136;SDS011;69622;49.570;10.986;2023-05-07T23:59:08;5.53;;;4.07;;
